NEW EXCHEQUER-LK MCCLURE (EXC)

Elevation: 879' · MERCED R basin · Operator: Merced Irrigation District

Provisional data, subject to change.
Query executed Friday at 0:45:30   clock

Select a sensor type for a plot of data.
Note: Reservoir Flows are daily averages.

Earlier

Date RES ELE    STORAGE    RES CHG    TOC STO    ABV TOC    OUTFLOW    INFLOW    PPT INC    TEMP MN    TEMP MX    TEMP AV   
 FEET   AF   AF   AF   AF   CFS   CFS   INCHES   DEG F   DEG F   DEG F  
02/28/2015 605.94 87522 78 674600 -587078 169 280 0.03 -- -- --
03/01/2015 606.08 87704 78 674600 -586896 163 255 0.06 -- -- --
03/02/2015 606.26 87938 104 674600 -586662 148 266 0.02 -- -- --
03/03/2015 605.84 87392 26 674600 -587208 148 260 0.00 -- -- --
03/04/2015 605.90 87470 -26 674600 -587130 169 209 0.00 -- -- --
03/05/2015 605.95 87535 -39 674600 -587065 173 206 0.00 -- -- --
03/06/2015 605.99 87587 -39 674600 -587013 180 206 0.00 -- -- --
03/07/2015 605.98 87574 -52 674600 -587026 178 172 0.00 -- -- --
03/08/2015 606.00 87600 0 674600 -587000 180 193 0.00 -- -- --
03/09/2015 606.02 87626 -13 674600 -586974 185 198 0.00 -- -- --
03/10/2015 606.06 87678 13 674600 -586922 191 217 0.00 -- -- --
03/11/2015 606.11 87743 26 674600 -586857 192 224 0.06 -- -- --
03/12/2015 606.22 87886 65 674600 -586714 194 266 0.00 -- -- --
03/13/2015 606.33 88029 78 674600 -586571 194 266 0.00 -- -- --
03/14/2015 606.43 88159 65 674600 -586441 185 251 0.00 -- -- --
03/15/2015 606.60 88380 -- 674600 -586220 182 294 0.00 -- -- --
03/16/2015 606.89 88757 208 678404 -589647 185 375 0.00 -- -- --
03/17/2015 607.23 89199 260 682209 -593010 191 414 0.00 -- -- --
03/18/2015 607.56 89628 234 686013 -596385 186 402 0.00 -- -- --
03/19/2015 607.80 89940 169 689817 -599877 200 358 0.00 -- -- --
03/20/2015 608.05 90265 195 693622 -603357 200 364 0.00 -- -- --
03/21/2015 608.23 90499 143 697426 -606927 209 327 0.00 -- -- --
03/22/2015 608.41 90733 156 701230 -610497 208 326 0.00 -- -- --
03/23/2015 608.59 90967 130 705035 -614068 192 310 0.00 -- -- --
03/24/2015 608.73 91149 104 708839 -617690 208 300 0.00 -- -- --
03/25/2015 608.86 91318 91 712644 -621326 210 295 0.00 -- -- --
03/26/2015 -- -- -- -- -- -- -- -- -- -- --
03/27/2015 -- -- -- -- -- -- -- -- -- -- --

Later | Latest

Warning! This data is preliminary and subject to revision.

Show EXC Map | Plot EXC Data | 1 Month EXC Data | Real-Time EXC Data | EXC Info